sensor_id;sensor_type;location;lat;lon;timestamp;P1;durP1;ratioP1;P2;durP2;ratioP2
46230;SDS011;31949;51.404;-0.038;2023-06-26T00:01:42;10.05;;;1.90;;
46230;SDS011;31949;51.404;-0.038;2023-06-26T00:04:09;5.63;;;1.80;;
46230;SDS011;31949;51.404;-0.038;2023-06-26T00:06:41;4.45;;;1.63;;
46230;SDS011;31949;51.404;-0.038;2023-06-26T00:09:09;6.28;;;2.33;;
46230;SDS011;31949;51.404;-0.038;2023-06-26T00:11:36;6.20;;;1.80;;
46230;SDS011;31949;51.404;-0.038;2023-06-26T00:14:03;5.72;;;1.52;;
46230;SDS011;31949;51.404;-0.038;2023-06-26T00:16:30;2.95;;;1.55;;
46230;SDS011;31949;51.404;-0.038;2023-06-26T00:18:57;4.15;;;1.80;;
46230;SDS011;31949;51.404;-0.038;2023-06-26T00:21:25;3.30;;;1.40;;
46230;SDS011;31949;51.404;-0.038;2023-06-26T00:23:53;2.78;;;1.17;;
46230;SDS011;31949;51.404;-0.038;2023-06-26T00:26:21;6.40;;;1.75;;
46230;SDS011;31949;51.404;-0.038;2023-06-26T00:28:48;3.05;;;1.20;;
46230;SDS011;31949;51.404;-0.038;2023-06-26T00:31:15;4.65;;;1.80;;
46230;SDS011;31949;51.404;-0.038;2023-06-26T00:33:43;6.07;;;1.60;;
46230;SDS011;31949;51.404;-0.038;2023-06-26T00:36:10;5.93;;;1.95;;
46230;SDS011;31949;51.404;-0.038;2023-06-26T00:38:37;5.93;;;1.65;;
46230;SDS011;31949;51.404;-0.038;2023-06-26T00:41:05;6.25;;;2.05;;
46230;SDS011;31949;51.404;-0.038;2023-06-26T00:43:39;3.88;;;1.50;;
46230;SDS011;31949;51.404;-0.038;2023-06-26T00:46:09;7.22;;;1.48;;
46230;SDS011;31949;51.404;-0.038;2023-06-26T00:48:41;3.22;;;1.67;;
46230;SDS011;31949;51.404;-0.038;2023-06-26T00:51:11;5.90;;;1.70;;
46230;SDS011;31949;51.404;-0.038;2023-06-26T00:53:39;5.20;;;1.98;;
46230;SDS011;31949;51.404;-0.038;2023-06-26T00:56:06;4.60;;;1.65;;
46230;SDS011;31949;51.404;-0.038;2023-06-26T00:58:35;4.50;;;1.55;;
46230;SDS011;31949;51.404;-0.038;2023-06-26T01:01:03;4.25;;;1.48;;
46230;SDS011;31949;51.404;-0.038;2023-06-26T01:03:32;3.90;;;2.25;;
46230;SDS011;31949;51.404;-0.038;2023-06-26T01:06:00;6.70;;;2.60;;
46230;SDS011;31949;51.404;-0.038;2023-06-26T01:08:31;3.63;;;1.92;;
46230;SDS011;31949;51.404;-0.038;2023-06-26T01:10:58;4.20;;;1.77;;
46230;SDS011;31949;51.404;-0.038;2023-06-26T01:13:26;4.22;;;2.13;;
46230;SDS011;31949;51.404;-0.038;2023-06-26T01:15:55;6.97;;;2.67;;
46230;SDS011;31949;51.404;-0.038;2023-06-26T01:18:25;6.50;;;2.45;;
46230;SDS011;31949;51.404;-0.038;2023-06-26T01:20:53;5.82;;;2.25;;
46230;SDS011;31949;51.404;-0.038;2023-06-26T01:23:22;2.90;;;1.50;;
46230;SDS011;31949;51.404;-0.038;2023-06-26T01:28:31;5.18;;;2.22;;
46230;SDS011;31949;51.404;-0.038;2023-06-26T01:31:00;8.57;;;2.42;;
46230;SDS011;31949;51.404;-0.038;2023-06-26T01:33:29;7.60;;;2.58;;
46230;SDS011;31949;51.404;-0.038;2023-06-26T01:35:57;4.20;;;1.88;;
46230;SDS011;31949;51.404;-0.038;2023-06-26T01:38:26;6.78;;;2.13;;
46230;SDS011;31949;51.404;-0.038;2023-06-26T01:40:56;4.38;;;1.92;;
46230;SDS011;31949;51.404;-0.038;2023-06-26T01:46:27;5.47;;;1.80;;
46230;SDS011;31949;51.404;-0.038;2023-06-26T01:49:11;2.78;;;1.50;;
46230;SDS011;31949;51.404;-0.038;2023-06-26T01:57:37;5.13;;;2.00;;
46230;SDS011;31949;51.404;-0.038;2023-06-26T02:00:06;8.02;;;2.53;;
46230;SDS011;31949;51.404;-0.038;2023-06-26T02:02:40;10.02;;;2.17;;
46230;SDS011;31949;51.404;-0.038;2023-06-26T02:05:13;7.40;;;2.50;;
46230;SDS011;31949;51.404;-0.038;2023-06-26T02:07:41;7.57;;;2.33;;
46230;SDS011;31949;51.404;-0.038;2023-06-26T02:10:09;8.85;;;3.00;;
46230;SDS011;31949;51.404;-0.038;2023-06-26T02:12:37;5.70;;;2.25;;
46230;SDS011;31949;51.404;-0.038;2023-06-26T02:15:05;9.10;;;2.30;;
46230;SDS011;31949;51.404;-0.038;2023-06-26T02:17:33;5.07;;;2.03;;
46230;SDS011;31949;51.404;-0.038;2023-06-26T02:20:01;4.10;;;1.70;;
46230;SDS011;31949;51.404;-0.038;2023-06-26T02:22:29;7.25;;;2.72;;
46230;SDS011;31949;51.404;-0.038;2023-06-26T02:24:56;2.80;;;1.52;;
46230;SDS011;31949;51.404;-0.038;2023-06-26T02:27:24;3.50;;;1.70;;
46230;SDS011;31949;51.404;-0.038;2023-06-26T02:29:52;4.32;;;2.08;;
46230;SDS011;31949;51.404;-0.038;2023-06-26T02:32:19;3.53;;;2.00;;
46230;SDS011;31949;51.404;-0.038;2023-06-26T02:34:49;5.32;;;1.98;;
46230;SDS011;31949;51.404;-0.038;2023-06-26T02:37:18;4.88;;;2.00;;
46230;SDS011;31949;51.404;-0.038;2023-06-26T02:39:46;5.97;;;2.60;;
46230;SDS011;31949;51.404;-0.038;2023-06-26T02:42:13;5.88;;;2.47;;
46230;SDS011;31949;51.404;-0.038;2023-06-26T02:44:40;11.88;;;3.35;;
46230;SDS011;31949;51.404;-0.038;2023-06-26T02:47:08;6.72;;;2.70;;
46230;SDS011;31949;51.404;-0.038;2023-06-26T02:49:40;7.40;;;3.03;;
46230;SDS011;31949;51.404;-0.038;2023-06-26T02:52:07;6.00;;;2.20;;
46230;SDS011;31949;51.404;-0.038;2023-06-26T02:54:34;5.47;;;2.17;;
46230;SDS011;31949;51.404;-0.038;2023-06-26T02:57:03;9.85;;;3.15;;
46230;SDS011;31949;51.404;-0.038;2023-06-26T02:59:32;12.00;;;3.25;;
46230;SDS011;31949;51.404;-0.038;2023-06-26T03:02:01;8.27;;;2.88;;
46230;SDS011;31949;51.404;-0.038;2023-06-26T03:04:34;4.45;;;2.55;;
46230;SDS011;31949;51.404;-0.038;2023-06-26T03:07:04;4.50;;;2.67;;
46230;SDS011;31949;51.404;-0.038;2023-06-26T03:09:32;9.95;;;3.30;;
46230;SDS011;31949;51.404;-0.038;2023-06-26T03:11:59;4.10;;;2.50;;
46230;SDS011;31949;51.404;-0.038;2023-06-26T03:14:26;4.65;;;2.60;;
46230;SDS011;31949;51.404;-0.038;2023-06-26T03:16:54;6.38;;;3.08;;
46230;SDS011;31949;51.404;-0.038;2023-06-26T03:19:26;7.25;;;2.38;;
46230;SDS011;31949;51.404;-0.038;2023-06-26T03:22:14;6.55;;;2.45;;
46230;SDS011;31949;51.404;-0.038;2023-06-26T03:24:43;5.57;;;2.55;;
46230;SDS011;31949;51.404;-0.038;2023-06-26T03:27:12;9.50;;;2.17;;
46230;SDS011;31949;51.404;-0.038;2023-06-26T03:29:42;4.90;;;1.98;;
46230;SDS011;31949;51.404;-0.038;2023-06-26T03:32:10;4.15;;;1.85;;
46230;SDS011;31949;51.404;-0.038;2023-06-26T03:34:38;8.00;;;2.20;;
46230;SDS011;31949;51.404;-0.038;2023-06-26T03:37:05;6.38;;;2.45;;
46230;SDS011;31949;51.404;-0.038;2023-06-26T03:39:33;8.55;;;2.60;;
46230;SDS011;31949;51.404;-0.038;2023-06-26T03:42:00;6.30;;;2.13;;
46230;SDS011;31949;51.404;-0.038;2023-06-26T03:44:27;9.20;;;2.50;;
46230;SDS011;31949;51.404;-0.038;2023-06-26T03:46:55;10.73;;;2.83;;
46230;SDS011;31949;51.404;-0.038;2023-06-26T03:49:22;3.95;;;2.42;;
46230;SDS011;31949;51.404;-0.038;2023-06-26T03:51:51;6.47;;;2.88;;
46230;SDS011;31949;51.404;-0.038;2023-06-26T03:54:18;3.70;;;2.10;;
46230;SDS011;31949;51.404;-0.038;2023-06-26T03:56:47;6.15;;;2.35;;
46230;SDS011;31949;51.404;-0.038;2023-06-26T03:59:14;11.65;;;3.28;;
46230;SDS011;31949;51.404;-0.038;2023-06-26T04:01:42;5.35;;;2.25;;
46230;SDS011;31949;51.404;-0.038;2023-06-26T04:04:09;5.60;;;2.78;;
46230;SDS011;31949;51.404;-0.038;2023-06-26T04:06:36;8.13;;;2.17;;
46230;SDS011;31949;51.404;-0.038;2023-06-26T04:09:03;6.25;;;1.98;;
46230;SDS011;31949;51.404;-0.038;2023-06-26T04:11:31;4.90;;;1.92;;
46230;SDS011;31949;51.404;-0.038;2023-06-26T04:13:58;5.93;;;1.85;;
46230;SDS011;31949;51.404;-0.038;2023-06-26T04:16:25;5.80;;;2.38;;
46230;SDS011;31949;51.404;-0.038;2023-06-26T04:18:53;6.18;;;1.95;;
46230;SDS011;31949;51.404;-0.038;2023-06-26T04:21:22;5.75;;;3.38;;
46230;SDS011;31949;51.404;-0.038;2023-06-26T04:23:52;8.65;;;2.10;;
46230;SDS011;31949;51.404;-0.038;2023-06-26T04:26:20;5.00;;;2.20;;
46230;SDS011;31949;51.404;-0.038;2023-06-26T04:28:47;7.68;;;2.50;;
46230;SDS011;31949;51.404;-0.038;2023-06-26T04:31:14;3.70;;;2.00;;
46230;SDS011;31949;51.404;-0.038;2023-06-26T04:33:42;10.90;;;3.10;;
46230;SDS011;31949;51.404;-0.038;2023-06-26T04:36:09;6.80;;;3.05;;
46230;SDS011;31949;51.404;-0.038;2023-06-26T04:38:37;8.80;;;2.67;;
46230;SDS011;31949;51.404;-0.038;2023-06-26T04:41:05;7.65;;;2.15;;
46230;SDS011;31949;51.404;-0.038;2023-06-26T04:43:32;6.32;;;2.25;;
46230;SDS011;31949;51.404;-0.038;2023-06-26T04:45:59;8.43;;;2.70;;
46230;SDS011;31949;51.404;-0.038;2023-06-26T04:48:27;5.70;;;2.75;;
46230;SDS011;31949;51.404;-0.038;2023-06-26T04:50:54;6.90;;;2.60;;
46230;SDS011;31949;51.404;-0.038;2023-06-26T04:53:22;3.65;;;1.73;;
46230;SDS011;31949;51.404;-0.038;2023-06-26T04:55:53;8.60;;;2.40;;
46230;SDS011;31949;51.404;-0.038;2023-06-26T04:58:20;8.75;;;2.40;;
46230;SDS011;31949;51.404;-0.038;2023-06-26T05:00:47;9.23;;;2.50;;
46230;SDS011;31949;51.404;-0.038;2023-06-26T05:03:16;8.07;;;3.00;;
46230;SDS011;31949;51.404;-0.038;2023-06-26T05:05:44;5.43;;;2.30;;
46230;SDS011;31949;51.404;-0.038;2023-06-26T05:08:20;3.85;;;2.30;;
46230;SDS011;31949;51.404;-0.038;2023-06-26T05:10:48;4.72;;;2.72;;
46230;SDS011;31949;51.404;-0.038;2023-06-26T05:13:16;5.45;;;2.17;;
46230;SDS011;31949;51.404;-0.038;2023-06-26T05:15:46;6.65;;;2.30;;
46230;SDS011;31949;51.404;-0.038;2023-06-26T05:18:13;6.47;;;2.20;;
46230;SDS011;31949;51.404;-0.038;2023-06-26T05:20:41;9.85;;;2.33;;
46230;SDS011;31949;51.404;-0.038;2023-06-26T05:23:10;8.27;;;2.58;;
46230;SDS011;31949;51.404;-0.038;2023-06-26T05:25:38;4.65;;;2.45;;
46230;SDS011;31949;51.404;-0.038;2023-06-26T05:28:07;4.45;;;2.08;;
46230;SDS011;31949;51.404;-0.038;2023-06-26T05:30:37;7.07;;;2.60;;
46230;SDS011;31949;51.404;-0.038;2023-06-26T05:33:05;16.27;;;3.42;;
46230;SDS011;31949;51.404;-0.038;2023-06-26T05:35:33;8.27;;;2.70;;
46230;SDS011;31949;51.404;-0.038;2023-06-26T05:38:03;12.82;;;2.95;;
46230;SDS011;31949;51.404;-0.038;2023-06-26T05:40:30;7.22;;;2.17;;
46230;SDS011;31949;51.404;-0.038;2023-06-26T05:42:58;11.25;;;2.75;;
46230;SDS011;31949;51.404;-0.038;2023-06-26T05:45:25;8.93;;;2.45;;
46230;SDS011;31949;51.404;-0.038;2023-06-26T05:47:52;7.28;;;2.78;;
46230;SDS011;31949;51.404;-0.038;2023-06-26T05:50:20;10.40;;;3.15;;
46230;SDS011;31949;51.404;-0.038;2023-06-26T05:52:47;10.35;;;3.28;;
46230;SDS011;31949;51.404;-0.038;2023-06-26T05:55:15;8.23;;;2.92;;
46230;SDS011;31949;51.404;-0.038;2023-06-26T05:57:43;7.75;;;2.78;;
46230;SDS011;31949;51.404;-0.038;2023-06-26T06:00:12;7.90;;;2.88;;
46230;SDS011;31949;51.404;-0.038;2023-06-26T06:02:41;12.43;;;3.13;;
46230;SDS011;31949;51.404;-0.038;2023-06-26T06:05:09;6.57;;;2.30;;
46230;SDS011;31949;51.404;-0.038;2023-06-26T06:07:36;7.35;;;2.53;;
46230;SDS011;31949;51.404;-0.038;2023-06-26T06:10:04;11.98;;;2.60;;
46230;SDS011;31949;51.404;-0.038;2023-06-26T06:12:31;8.50;;;3.00;;
46230;SDS011;31949;51.404;-0.038;2023-06-26T06:14:59;8.38;;;2.63;;
46230;SDS011;31949;51.404;-0.038;2023-06-26T06:17:26;7.85;;;2.75;;
46230;SDS011;31949;51.404;-0.038;2023-06-26T06:19:53;9.90;;;2.55;;
46230;SDS011;31949;51.404;-0.038;2023-06-26T06:22:20;9.90;;;2.83;;
46230;SDS011;31949;51.404;-0.038;2023-06-26T06:24:51;5.60;;;2.38;;
46230;SDS011;31949;51.404;-0.038;2023-06-26T06:27:18;9.07;;;3.28;;
46230;SDS011;31949;51.404;-0.038;2023-06-26T06:29:45;7.45;;;3.10;;
46230;SDS011;31949;51.404;-0.038;2023-06-26T06:32:13;13.07;;;2.40;;
46230;SDS011;31949;51.404;-0.038;2023-06-26T06:34:40;8.90;;;2.70;;
46230;SDS011;31949;51.404;-0.038;2023-06-26T06:37:07;5.72;;;2.45;;
46230;SDS011;31949;51.404;-0.038;2023-06-26T06:39:34;7.90;;;2.97;;
46230;SDS011;31949;51.404;-0.038;2023-06-26T06:42:02;6.13;;;2.67;;
46230;SDS011;31949;51.404;-0.038;2023-06-26T06:44:29;9.35;;;2.75;;
46230;SDS011;31949;51.404;-0.038;2023-06-26T06:46:59;11.43;;;2.90;;
46230;SDS011;31949;51.404;-0.038;2023-06-26T06:49:27;8.13;;;2.70;;
46230;SDS011;31949;51.404;-0.038;2023-06-26T06:51:54;7.43;;;1.90;;
46230;SDS011;31949;51.404;-0.038;2023-06-26T06:54:21;5.95;;;2.67;;
46230;SDS011;31949;51.404;-0.038;2023-06-26T06:56:48;5.18;;;1.77;;
46230;SDS011;31949;51.404;-0.038;2023-06-26T06:59:15;8.57;;;2.35;;
46230;SDS011;31949;51.404;-0.038;2023-06-26T07:01:43;9.85;;;1.83;;
46230;SDS011;31949;51.404;-0.038;2023-06-26T07:04:10;8.43;;;2.45;;
46230;SDS011;31949;51.404;-0.038;2023-06-26T07:06:37;8.27;;;2.45;;
46230;SDS011;31949;51.404;-0.038;2023-06-26T07:09:05;4.72;;;1.70;;
46230;SDS011;31949;51.404;-0.038;2023-06-26T07:11:33;4.03;;;2.08;;
46230;SDS011;31949;51.404;-0.038;2023-06-26T07:14:00;7.82;;;1.60;;
46230;SDS011;31949;51.404;-0.038;2023-06-26T07:16:28;5.07;;;1.63;;
46230;SDS011;31949;51.404;-0.038;2023-06-26T07:18:55;6.00;;;1.95;;
46230;SDS011;31949;51.404;-0.038;2023-06-26T07:21:24;8.80;;;2.30;;
46230;SDS011;31949;51.404;-0.038;2023-06-26T07:23:53;4.97;;;1.58;;
46230;SDS011;31949;51.404;-0.038;2023-06-26T07:26:20;7.95;;;1.73;;
46230;SDS011;31949;51.404;-0.038;2023-06-26T07:29:08;6.07;;;1.60;;
46230;SDS011;31949;51.404;-0.038;2023-06-26T07:31:35;7.85;;;2.17;;
46230;SDS011;31949;51.404;-0.038;2023-06-26T07:34:03;6.65;;;2.00;;
46230;SDS011;31949;51.404;-0.038;2023-06-26T07:36:30;4.97;;;1.77;;
46230;SDS011;31949;51.404;-0.038;2023-06-26T07:38:57;3.25;;;1.67;;
46230;SDS011;31949;51.404;-0.038;2023-06-26T07:41:24;4.50;;;1.60;;
46230;SDS011;31949;51.404;-0.038;2023-06-26T07:43:51;5.60;;;1.88;;
46230;SDS011;31949;51.404;-0.038;2023-06-26T07:46:19;5.72;;;1.80;;
46230;SDS011;31949;51.404;-0.038;2023-06-26T07:48:46;5.60;;;1.83;;
46230;SDS011;31949;51.404;-0.038;2023-06-26T07:51:15;6.60;;;1.50;;
46230;SDS011;31949;51.404;-0.038;2023-06-26T07:53:42;2.97;;;1.50;;
46230;SDS011;31949;51.404;-0.038;2023-06-26T07:56:11;7.15;;;1.67;;
46230;SDS011;31949;51.404;-0.038;2023-06-26T07:58:38;4.32;;;1.40;;
46230;SDS011;31949;51.404;-0.038;2023-06-26T08:01:05;7.35;;;2.47;;
46230;SDS011;31949;51.404;-0.038;2023-06-26T08:03:32;5.43;;;1.67;;
46230;SDS011;31949;51.404;-0.038;2023-06-26T08:06:01;5.75;;;1.73;;
46230;SDS011;31949;51.404;-0.038;2023-06-26T08:08:30;5.18;;;1.50;;
46230;SDS011;31949;51.404;-0.038;2023-06-26T08:10:57;3.78;;;1.30;;
46230;SDS011;31949;51.404;-0.038;2023-06-26T08:13:24;7.32;;;2.10;;
46230;SDS011;31949;51.404;-0.038;2023-06-26T08:15:52;4.53;;;1.50;;
46230;SDS011;31949;51.404;-0.038;2023-06-26T08:18:19;2.33;;;1.30;;
46230;SDS011;31949;51.404;-0.038;2023-06-26T08:20:47;5.45;;;1.98;;
46230;SDS011;31949;51.404;-0.038;2023-06-26T08:23:14;6.90;;;2.20;;
46230;SDS011;31949;51.404;-0.038;2023-06-26T08:25:41;3.13;;;1.30;;
46230;SDS011;31949;51.404;-0.038;2023-06-26T08:28:08;6.05;;;1.60;;
46230;SDS011;31949;51.404;-0.038;2023-06-26T08:30:36;6.15;;;1.40;;
46230;SDS011;31949;51.404;-0.038;2023-06-26T08:33:03;5.97;;;1.65;;
46230;SDS011;31949;51.404;-0.038;2023-06-26T08:35:31;5.10;;;2.05;;
46230;SDS011;31949;51.404;-0.038;2023-06-26T08:37:58;1.98;;;1.13;;
46230;SDS011;31949;51.404;-0.038;2023-06-26T08:40:26;6.88;;;1.50;;
46230;SDS011;31949;51.404;-0.038;2023-06-26T08:42:53;7.38;;;1.70;;
46230;SDS011;31949;51.404;-0.038;2023-06-26T08:45:21;5.88;;;1.42;;
46230;SDS011;31949;51.404;-0.038;2023-06-26T08:47:50;2.67;;;1.40;;
46230;SDS011;31949;51.404;-0.038;2023-06-26T08:50:20;4.28;;;1.52;;
46230;SDS011;31949;51.404;-0.038;2023-06-26T08:52:55;5.13;;;2.03;;
46230;SDS011;31949;51.404;-0.038;2023-06-26T08:55:44;4.35;;;1.98;;
46230;SDS011;31949;51.404;-0.038;2023-06-26T08:58:12;4.20;;;1.70;;
46230;SDS011;31949;51.404;-0.038;2023-06-26T09:00:40;5.60;;;1.85;;
46230;SDS011;31949;51.404;-0.038;2023-06-26T09:03:08;5.72;;;1.30;;
46230;SDS011;31949;51.404;-0.038;2023-06-26T09:05:36;5.63;;;1.58;;
46230;SDS011;31949;51.404;-0.038;2023-06-26T09:08:04;5.55;;;1.90;;
46230;SDS011;31949;51.404;-0.038;2023-06-26T09:10:32;2.75;;;1.48;;
46230;SDS011;31949;51.404;-0.038;2023-06-26T09:12:59;4.15;;;1.60;;
46230;SDS011;31949;51.404;-0.038;2023-06-26T09:15:43;3.67;;;1.15;;
46230;SDS011;31949;51.404;-0.038;2023-06-26T09:18:11;2.88;;;1.40;;
46230;SDS011;31949;51.404;-0.038;2023-06-26T09:20:39;6.13;;;1.25;;
46230;SDS011;31949;51.404;-0.038;2023-06-26T09:23:07;2.80;;;1.10;;
46230;SDS011;31949;51.404;-0.038;2023-06-26T09:25:37;3.75;;;1.10;;
46230;SDS011;31949;51.404;-0.038;2023-06-26T09:28:08;6.15;;;1.63;;
46230;SDS011;31949;51.404;-0.038;2023-06-26T09:30:36;3.70;;;1.45;;
46230;SDS011;31949;51.404;-0.038;2023-06-26T09:33:16;5.00;;;1.38;;
46230;SDS011;31949;51.404;-0.038;2023-06-26T09:35:46;3.47;;;0.93;;
46230;SDS011;31949;51.404;-0.038;2023-06-26T09:38:14;2.60;;;1.10;;
46230;SDS011;31949;51.404;-0.038;2023-06-26T09:40:41;5.50;;;2.00;;
46230;SDS011;31949;51.404;-0.038;2023-06-26T09:43:09;6.47;;;1.40;;
46230;SDS011;31949;51.404;-0.038;2023-06-26T09:45:40;4.60;;;1.27;;
46230;SDS011;31949;51.404;-0.038;2023-06-26T09:48:08;2.35;;;1.20;;
46230;SDS011;31949;51.404;-0.038;2023-06-26T09:50:35;3.25;;;1.20;;
46230;SDS011;31949;51.404;-0.038;2023-06-26T09:53:09;4.32;;;1.15;;
46230;SDS011;31949;51.404;-0.038;2023-06-26T09:55:40;3.42;;;1.38;;
46230;SDS011;31949;51.404;-0.038;2023-06-26T09:58:11;5.72;;;1.52;;
46230;SDS011;31949;51.404;-0.038;2023-06-26T10:00:41;1.65;;;0.73;;
46230;SDS011;31949;51.404;-0.038;2023-06-26T10:03:10;6.70;;;1.33;;
46230;SDS011;31949;51.404;-0.038;2023-06-26T10:05:40;5.82;;;1.35;;
46230;SDS011;31949;51.404;-0.038;2023-06-26T10:08:07;7.43;;;1.40;;
46230;SDS011;31949;51.404;-0.038;2023-06-26T10:10:35;3.33;;;1.00;;
46230;SDS011;31949;51.404;-0.038;2023-06-26T10:13:08;2.20;;;0.90;;
46230;SDS011;31949;51.404;-0.038;2023-06-26T10:15:43;4.13;;;0.90;;
46230;SDS011;31949;51.404;-0.038;2023-06-26T10:18:13;4.18;;;1.20;;
46230;SDS011;31949;51.404;-0.038;2023-06-26T10:20:47;2.03;;;1.10;;
46230;SDS011;31949;51.404;-0.038;2023-06-26T10:23:15;2.63;;;1.10;;
46230;SDS011;31949;51.404;-0.038;2023-06-26T10:25:46;3.08;;;1.20;;
46230;SDS011;31949;51.404;-0.038;2023-06-26T10:28:15;4.65;;;1.05;;
46230;SDS011;31949;51.404;-0.038;2023-06-26T10:30:43;3.17;;;1.08;;
46230;SDS011;31949;51.404;-0.038;2023-06-26T10:33:13;3.35;;;1.33;;
46230;SDS011;31949;51.404;-0.038;2023-06-26T10:35:42;5.10;;;1.30;;
46230;SDS011;31949;51.404;-0.038;2023-06-26T10:38:12;3.85;;;1.13;;
46230;SDS011;31949;51.404;-0.038;2023-06-26T10:40:40;3.38;;;0.98;;
46230;SDS011;31949;51.404;-0.038;2023-06-26T10:43:15;3.80;;;1.30;;
46230;SDS011;31949;51.404;-0.038;2023-06-26T10:45:44;8.07;;;2.20;;
46230;SDS011;31949;51.404;-0.038;2023-06-26T10:48:14;3.92;;;1.10;;
46230;SDS011;31949;51.404;-0.038;2023-06-26T10:50:42;3.72;;;1.42;;
46230;SDS011;31949;51.404;-0.038;2023-06-26T10:53:11;2.97;;;1.20;;
46230;SDS011;31949;51.404;-0.038;2023-06-26T10:55:41;3.92;;;0.88;;
46230;SDS011;31949;51.404;-0.038;2023-06-26T11:01:25;3.72;;;1.00;;
46230;SDS011;31949;51.404;-0.038;2023-06-26T11:06:29;2.65;;;1.00;;
46230;SDS011;31949;51.404;-0.038;2023-06-26T11:14:23;1.98;;;0.85;;
46230;SDS011;31949;51.404;-0.038;2023-06-26T11:16:52;3.60;;;1.52;;
46230;SDS011;31949;51.404;-0.038;2023-06-26T11:19:21;4.05;;;1.98;;
46230;SDS011;31949;51.404;-0.038;2023-06-26T11:21:48;2.35;;;1.17;;
46230;SDS011;31949;51.404;-0.038;2023-06-26T11:24:17;3.63;;;1.48;;
46230;SDS011;31949;51.404;-0.038;2023-06-26T11:26:44;3.65;;;1.00;;
46230;SDS011;31949;51.404;-0.038;2023-06-26T11:29:13;7.18;;;2.17;;
46230;SDS011;31949;51.404;-0.038;2023-06-26T11:31:41;4.75;;;1.55;;
46230;SDS011;31949;51.404;-0.038;2023-06-26T11:34:09;7.25;;;1.15;;
46230;SDS011;31949;51.404;-0.038;2023-06-26T11:36:39;3.17;;;0.85;;
46230;SDS011;31949;51.404;-0.038;2023-06-26T11:39:09;5.00;;;1.05;;
46230;SDS011;31949;51.404;-0.038;2023-06-26T11:41:37;2.63;;;1.38;;
46230;SDS011;31949;51.404;-0.038;2023-06-26T11:44:09;2.20;;;0.70;;
46230;SDS011;31949;51.404;-0.038;2023-06-26T11:46:37;1.85;;;1.00;;
46230;SDS011;31949;51.404;-0.038;2023-06-26T11:49:05;3.85;;;1.23;;
46230;SDS011;31949;51.404;-0.038;2023-06-26T11:51:34;2.75;;;0.93;;
46230;SDS011;31949;51.404;-0.038;2023-06-26T11:54:05;1.33;;;0.80;;
46230;SDS011;31949;51.404;-0.038;2023-06-26T11:56:32;3.47;;;1.10;;
46230;SDS011;31949;51.404;-0.038;2023-06-26T11:59:10;2.83;;;0.80;;
46230;SDS011;31949;51.404;-0.038;2023-06-26T12:01:38;5.88;;;1.00;;
46230;SDS011;31949;51.404;-0.038;2023-06-26T12:04:08;2.72;;;0.88;;
46230;SDS011;31949;51.404;-0.038;2023-06-26T12:06:38;4.97;;;1.52;;
46230;SDS011;31949;51.404;-0.038;2023-06-26T12:09:08;3.13;;;1.20;;
46230;SDS011;31949;51.404;-0.038;2023-06-26T12:11:40;5.38;;;1.00;;
46230;SDS011;31949;51.404;-0.038;2023-06-26T12:14:09;3.42;;;1.15;;
46230;SDS011;31949;51.404;-0.038;2023-06-26T12:16:38;5.03;;;0.95;;
46230;SDS011;31949;51.404;-0.038;2023-06-26T12:19:07;5.95;;;1.27;;
46230;SDS011;31949;51.404;-0.038;2023-06-26T12:24:12;6.63;;;1.08;;
46230;SDS011;31949;51.404;-0.038;2023-06-26T12:26:45;3.63;;;1.20;;
46230;SDS011;31949;51.404;-0.038;2023-06-26T12:29:14;1.58;;;0.70;;
46230;SDS011;31949;51.404;-0.038;2023-06-26T12:31:49;2.90;;;1.10;;
46230;SDS011;31949;51.404;-0.038;2023-06-26T12:34:23;6.20;;;1.30;;
46230;SDS011;31949;51.404;-0.038;2023-06-26T12:36:53;1.27;;;0.80;;
46230;SDS011;31949;51.404;-0.038;2023-06-26T12:39:26;2.47;;;0.80;;
46230;SDS011;31949;51.404;-0.038;2023-06-26T12:41:55;2.63;;;1.20;;
46230;SDS011;31949;51.404;-0.038;2023-06-26T12:44:31;2.90;;;1.00;;
46230;SDS011;31949;51.404;-0.038;2023-06-26T12:47:00;2.47;;;1.30;;
46230;SDS011;31949;51.404;-0.038;2023-06-26T12:49:29;1.92;;;1.10;;
46230;SDS011;31949;51.404;-0.038;2023-06-26T12:51:58;2.70;;;1.20;;
46230;SDS011;31949;51.404;-0.038;2023-06-26T12:54:27;3.00;;;1.15;;
46230;SDS011;31949;51.404;-0.038;2023-06-26T12:56:55;3.72;;;0.90;;
46230;SDS011;31949;51.404;-0.038;2023-06-26T12:59:23;4.40;;;1.02;;
46230;SDS011;31949;51.404;-0.038;2023-06-26T13:01:50;2.65;;;1.17;;
46230;SDS011;31949;51.404;-0.038;2023-06-26T13:04:18;1.70;;;1.13;;
46230;SDS011;31949;51.404;-0.038;2023-06-26T13:06:45;3.17;;;0.80;;
46230;SDS011;31949;51.404;-0.038;2023-06-26T13:09:12;4.72;;;1.30;;
46230;SDS011;31949;51.404;-0.038;2023-06-26T13:11:40;4.03;;;1.10;;
46230;SDS011;31949;51.404;-0.038;2023-06-26T13:14:07;3.92;;;0.95;;
46230;SDS011;31949;51.404;-0.038;2023-06-26T13:16:37;3.17;;;1.20;;
46230;SDS011;31949;51.404;-0.038;2023-06-26T13:19:05;3.33;;;1.10;;
46230;SDS011;31949;51.404;-0.038;2023-06-26T13:21:33;1.75;;;1.08;;
46230;SDS011;31949;51.404;-0.038;2023-06-26T13:24:01;3.65;;;1.55;;
46230;SDS011;31949;51.404;-0.038;2023-06-26T13:26:30;3.03;;;1.10;;
46230;SDS011;31949;51.404;-0.038;2023-06-26T13:29:01;1.73;;;1.10;;
46230;SDS011;31949;51.404;-0.038;2023-06-26T13:31:29;5.57;;;1.27;;
46230;SDS011;31949;51.404;-0.038;2023-06-26T13:33:58;2.72;;;1.10;;
46230;SDS011;31949;51.404;-0.038;2023-06-26T13:36:26;6.72;;;2.10;;
46230;SDS011;31949;51.404;-0.038;2023-06-26T13:38:53;2.78;;;1.00;;
46230;SDS011;31949;51.404;-0.038;2023-06-26T13:41:24;3.97;;;1.20;;
46230;SDS011;31949;51.404;-0.038;2023-06-26T13:43:52;4.78;;;1.30;;
46230;SDS011;31949;51.404;-0.038;2023-06-26T13:46:30;4.63;;;1.48;;
46230;SDS011;31949;51.404;-0.038;2023-06-26T13:48:57;6.85;;;1.40;;
46230;SDS011;31949;51.404;-0.038;2023-06-26T13:51:24;3.75;;;1.33;;
46230;SDS011;31949;51.404;-0.038;2023-06-26T13:53:51;4.63;;;1.77;;
46230;SDS011;31949;51.404;-0.038;2023-06-26T13:56:19;4.22;;;1.38;;
46230;SDS011;31949;51.404;-0.038;2023-06-26T13:58:46;5.40;;;1.90;;
46230;SDS011;31949;51.404;-0.038;2023-06-26T14:01:13;3.33;;;1.50;;
46230;SDS011;31949;51.404;-0.038;2023-06-26T14:03:41;3.78;;;1.52;;
46230;SDS011;31949;51.404;-0.038;2023-06-26T14:06:08;9.90;;;1.95;;
46230;SDS011;31949;51.404;-0.038;2023-06-26T14:08:35;6.60;;;1.80;;
46230;SDS011;31949;51.404;-0.038;2023-06-26T14:11:02;4.72;;;1.70;;
46230;SDS011;31949;51.404;-0.038;2023-06-26T14:13:29;3.95;;;1.38;;
46230;SDS011;31949;51.404;-0.038;2023-06-26T14:15:57;5.00;;;1.30;;
46230;SDS011;31949;51.404;-0.038;2023-06-26T14:18:24;3.88;;;2.03;;
46230;SDS011;31949;51.404;-0.038;2023-06-26T14:20:51;4.72;;;1.55;;
46230;SDS011;31949;51.404;-0.038;2023-06-26T14:23:20;6.43;;;1.60;;
46230;SDS011;31949;51.404;-0.038;2023-06-26T14:25:47;3.22;;;1.65;;
46230;SDS011;31949;51.404;-0.038;2023-06-26T14:28:15;4.95;;;1.42;;
46230;SDS011;31949;51.404;-0.038;2023-06-26T14:30:42;4.68;;;1.48;;
46230;SDS011;31949;51.404;-0.038;2023-06-26T14:33:10;7.00;;;2.05;;
46230;SDS011;31949;51.404;-0.038;2023-06-26T14:35:37;3.75;;;1.23;;
46230;SDS011;31949;51.404;-0.038;2023-06-26T14:38:04;2.83;;;1.90;;
46230;SDS011;31949;51.404;-0.038;2023-06-26T14:40:32;3.53;;;1.30;;
46230;SDS011;31949;51.404;-0.038;2023-06-26T14:43:00;3.38;;;1.52;;
46230;SDS011;31949;51.404;-0.038;2023-06-26T14:45:38;4.38;;;1.33;;
46230;SDS011;31949;51.404;-0.038;2023-06-26T14:48:13;7.40;;;1.52;;
46230;SDS011;31949;51.404;-0.038;2023-06-26T14:50:40;6.85;;;1.67;;
46230;SDS011;31949;51.404;-0.038;2023-06-26T14:53:10;4.35;;;1.42;;
46230;SDS011;31949;51.404;-0.038;2023-06-26T14:55:38;3.92;;;1.48;;
46230;SDS011;31949;51.404;-0.038;2023-06-26T14:58:05;2.67;;;1.35;;
46230;SDS011;31949;51.404;-0.038;2023-06-26T15:00:33;2.55;;;1.42;;
46230;SDS011;31949;51.404;-0.038;2023-06-26T15:03:00;3.45;;;1.58;;
46230;SDS011;31949;51.404;-0.038;2023-06-26T15:05:27;4.57;;;1.45;;
46230;SDS011;31949;51.404;-0.038;2023-06-26T15:07:55;5.55;;;1.45;;